Time;durP1;ratioP1;P1;durP2;ratioP2;P2;SDS_P1;SDS_P2;PMS_P1;PMS_P2;Temp;Humidity;BMP_temperature;BMP_pressure;BME280_temperature;BME280_humidity;BME280_pressure;Samples;Min_cycle;Max_cycle;Signal;HPM_P1;HPM_P2
2021/09/08 00:01:20;;;;;;;5.83;5.33;;;;;;;;;;5103062;28;20214;-87
2021/09/08 00:03:46;;;;;;;7.33;5.63;;;;;;;;;;5115639;28;20481;-87
2021/09/08 00:06:12;;;;;;;6.40;5.80;;;;;;;;;;5096905;28;20476;-87
2021/09/08 00:08:38;;;;;;;6.60;5.53;;;;;;;;;;5104516;28;20444;-88
2021/09/08 00:11:04;;;;;;;6.40;5.80;;;;;;;;;;5099464;28;20449;-88
2021/09/08 00:13:30;;;;;;;5.83;5.23;;;;;;;;;;5088291;28;20473;-88
2021/09/08 00:15:56;;;;;;;6.40;5.80;;;;;;;;;;5101599;28;20435;-88
2021/09/08 00:18:22;;;;;;;8.40;6.60;;;;;;;;;;5118523;28;20224;-88
2021/09/08 00:20:48;;;;;;;6.53;5.50;;;;;;;;;;5093067;28;20184;-89
2021/09/08 00:23:14;;;;;;;9.30;5.47;;;;;;;;;;5099489;28;20486;-87
2021/09/08 00:25:40;;;;;;;7.75;6.00;;;;;;;;;;5116914;28;20187;-88
2021/09/08 00:28:06;;;;;;;7.30;5.40;;;;;;;;;;5099185;28;20189;-88
2021/09/08 00:30:32;;;;;;;7.30;5.67;;;;;;;;;;5098542;28;20426;-88
2021/09/08 00:32:58;;;;;;;7.00;6.30;;;;;;;;;;5097899;28;20477;-88
2021/09/08 00:35:25;;;;;;;6.30;5.55;;;;;;;;;;5103044;28;20203;-88
2021/09/08 00:37:51;;;;;;;8.90;7.07;;;;;;;;;;5100740;28;20649;-89
2021/09/08 00:40:17;;;;;;;6.40;5.80;;;;;;;;;;5102095;28;20203;-89
2021/09/08 00:42:43;;;;;;;7.13;6.40;;;;;;;;;;5099665;28;20271;-87
2021/09/08 00:45:09;;;;;;;6.70;5.97;;;;;;;;;;5099993;28;20167;-89
2021/09/08 00:47:36;;;;;;;6.28;5.68;;;;;;;;;;5108148;28;20240;-87
2021/09/08 00:50:02;;;;;;;5.47;5.05;;;;;;;;;;5107613;28;20183;-87
2021/09/08 00:52:28;;;;;;;7.15;5.88;;;;;;;;;;5103082;28;20734;-88
2021/09/08 00:54:55;;;;;;;8.20;5.60;;;;;;;;;;5105722;28;20216;-86
2021/09/08 00:57:22;;;;;;;8.40;6.47;;;;;;;;;;5105263;28;20186;-88
2021/09/08 00:59:48;;;;;;;6.85;6.00;;;;;;;;;;5102499;28;20219;-87
2021/09/08 01:02:14;;;;;;;5.95;5.43;;;;;;;;;;5118481;28;20180;-88
2021/09/08 01:04:40;;;;;;;9.80;5.88;;;;;;;;;;5123129;28;20212;-87
2021/09/08 01:07:07;;;;;;;6.80;6.10;;;;;;;;;;5105705;28;20223;-88
2021/09/08 01:09:33;;;;;;;5.97;5.47;;;;;;;;;;5105417;28;20630;-89
2021/09/08 01:11:59;;;;;;;7.32;6.10;;;;;;;;;;5123955;28;20182;-89
2021/09/08 01:14:25;;;;;;;5.70;5.20;;;;;;;;;;5106237;28;20279;-90
2021/09/08 01:16:52;;;;;;;6.15;5.40;;;;;;;;;;5103025;28;20184;-90
2021/09/08 01:19:19;;;;;;;7.90;6.65;;;;;;;;;;5105981;28;20195;-90
2021/09/08 01:21:44;;;;;;;8.55;6.10;;;;;;;;;;5103665;28;20188;-88
2021/09/08 01:24:11;;;;;;;6.30;5.70;;;;;;;;;;5093383;28;20653;-89
2021/09/08 01:26:38;;;;;;;6.28;5.70;;;;;;;;;;5118538;28;20468;-89
2021/09/08 01:29:04;;;;;;;6.35;5.68;;;;;;;;;;5107430;28;20644;-90
2021/09/08 01:31:30;;;;;;;6.47;5.88;;;;;;;;;;5120069;28;20273;-90
2021/09/08 01:33:56;;;;;;;6.47;5.87;;;;;;;;;;5105668;28;20218;-89
2021/09/08 01:36:22;;;;;;;7.27;5.93;;;;;;;;;;5104088;28;20451;-89
2021/09/08 01:38:48;;;;;;;6.57;5.78;;;;;;;;;;5122078;28;20443;-89
2021/09/08 01:41:14;;;;;;;6.17;5.60;;;;;;;;;;5102117;28;20184;-89
2021/09/08 01:43:40;;;;;;;5.43;4.93;;;;;;;;;;5105413;28;20531;-90
2021/09/08 01:46:06;;;;;;;6.53;5.60;;;;;;;;;;5101824;28;20456;-90
2021/09/08 01:48:32;;;;;;;6.53;5.83;;;;;;;;;;5090403;28;20421;-89
2021/09/08 01:50:58;;;;;;;6.25;5.40;;;;;;;;;;5097328;28;20774;-89
2021/09/08 01:53:24;;;;;;;6.37;5.33;;;;;;;;;;5107303;28;20213;-89
2021/09/08 01:55:51;;;;;;;5.80;5.23;;;;;;;;;;5102845;28;20447;-89
2021/09/08 01:58:17;;;;;;;8.13;6.03;;;;;;;;;;5101718;28;20430;-90
2021/09/08 02:00:43;;;;;;;6.22;5.63;;;;;;;;;;5104479;28;20175;-89
2021/09/08 02:03:09;;;;;;;6.95;5.10;;;;;;;;;;5097936;28;20186;-90
2021/09/08 02:05:36;;;;;;;6.50;5.57;;;;;;;;;;5118034;28;20197;-90
2021/09/08 02:08:02;;;;;;;6.53;5.82;;;;;;;;;;5106183;28;20206;-88
2021/09/08 02:10:28;;;;;;;6.60;5.75;;;;;;;;;;5107011;28;20258;-89
2021/09/08 02:12:54;;;;;;;6.88;5.75;;;;;;;;;;5121445;28;20207;-89
2021/09/08 02:15:20;;;;;;;7.70;6.43;;;;;;;;;;5108111;28;20713;-90
2021/09/08 02:17:46;;;;;;;8.90;5.38;;;;;;;;;;5104360;28;20179;-89
2021/09/08 02:20:12;;;;;;;8.07;6.20;;;;;;;;;;5101048;28;20190;-89
2021/09/08 02:22:39;;;;;;;7.25;6.05;;;;;;;;;;5102969;28;20190;-88
2021/09/08 02:25:05;;;;;;;7.38;6.25;;;;;;;;;;5099304;28;20175;-88
2021/09/08 02:27:31;;;;;;;6.78;6.07;;;;;;;;;;5103919;28;20175;-88
2021/09/08 02:29:57;;;;;;;7.55;6.18;;;;;;;;;;5096914;28;20233;-88
2021/09/08 02:32:23;;;;;;;8.23;6.30;;;;;;;;;;5101926;28;20284;-89
2021/09/08 02:34:49;;;;;;;6.88;6.10;;;;;;;;;;5102405;28;20214;-88
2021/09/08 02:37:15;;;;;;;7.10;5.90;;;;;;;;;;5105910;28;20179;-87
2021/09/08 02:39:41;;;;;;;7.27;6.50;;;;;;;;;;5114622;28;20181;-88
2021/09/08 02:42:07;;;;;;;6.80;5.25;;;;;;;;;;5097263;28;20453;-87
2021/09/08 02:44:34;;;;;;;7.20;6.13;;;;;;;;;;5118668;28;20183;-87
2021/09/08 02:47:00;;;;;;;8.02;6.60;;;;;;;;;;5101342;28;20300;-88
2021/09/08 02:49:26;;;;;;;7.13;5.80;;;;;;;;;;5104430;28;20700;-88
2021/09/08 02:51:51;;;;;;;7.47;6.50;;;;;;;;;;5096123;27;20199;-88
2021/09/08 02:54:17;;;;;;;6.90;6.20;;;;;;;;;;5098361;28;20477;-87
2021/09/08 02:56:43;;;;;;;6.63;5.90;;;;;;;;;;5115164;28;20436;-88
2021/09/08 02:59:09;;;;;;;6.33;5.70;;;;;;;;;;5115787;28;20429;-89
2021/09/08 03:01:35;;;;;;;6.00;5.40;;;;;;;;;;5100566;28;20467;-88
2021/09/08 03:04:01;;;;;;;6.78;6.07;;;;;;;;;;5102777;28;20450;-88
2021/09/08 03:06:27;;;;;;;6.97;5.97;;;;;;;;;;5095414;28;20183;-89
2021/09/08 03:08:53;;;;;;;7.83;6.10;;;;;;;;;;5095549;28;20453;-89
2021/09/08 03:11:20;;;;;;;6.93;6.25;;;;;;;;;;5105231;28;20436;-89
2021/09/08 03:13:46;;;;;;;8.27;6.28;;;;;;;;;;5102868;28;20202;-90
2021/09/08 03:16:12;;;;;;;7.93;5.97;;;;;;;;;;5093729;28;20186;-90
2021/09/08 03:18:38;;;;;;;6.80;6.07;;;;;;;;;;5100853;28;20428;-88
2021/09/08 03:21:04;;;;;;;9.80;7.80;;;;;;;;;;5096280;28;20432;-88
2021/09/08 03:23:32;;;;;;;6.90;5.80;;;;;;;;;;5099792;28;20432;-88
2021/09/08 03:25:58;;;;;;;6.60;6.00;;;;;;;;;;5102848;28;20179;-88
2021/09/08 03:28:24;;;;;;;9.03;6.97;;;;;;;;;;5094472;28;20191;-89
2021/09/08 03:30:50;;;;;;;6.80;6.07;;;;;;;;;;5097632;28;20465;-89
2021/09/08 03:33:16;;;;;;;7.03;6.10;;;;;;;;;;5100422;28;20476;-89
2021/09/08 03:35:44;;;;;;;6.43;5.75;;;;;;;;;;5115901;28;20208;-89
2021/09/08 03:38:11;;;;;;;7.80;7.00;;;;;;;;;;5099379;28;20199;-89
2021/09/08 03:40:37;;;;;;;7.20;5.95;;;;;;;;;;5108295;28;20179;-89
2021/09/08 03:43:04;;;;;;;10.75;6.68;;;;;;;;;;5100194;28;20658;-89
2021/09/08 03:45:30;;;;;;;8.27;6.55;;;;;;;;;;5102194;28;20179;-89
2021/09/08 03:47:56;;;;;;;7.87;6.20;;;;;;;;;;5098005;28;20685;-90
2021/09/08 03:50:22;;;;;;;9.63;6.80;;;;;;;;;;5099204;28;20449;-89
2021/09/08 03:52:50;;;;;;;6.95;6.25;;;;;;;;;;5101634;28;20207;-88
2021/09/08 03:55:16;;;;;;;6.90;6.22;;;;;;;;;;5099250;28;20181;-88
2021/09/08 03:57:42;;;;;;;7.00;6.30;;;;;;;;;;5102596;28;20186;-88
2021/09/08 04:00:08;;;;;;;7.47;6.60;;;;;;;;;;5098799;28;20412;-88
2021/09/08 04:02:35;;;;;;;7.30;6.30;;;;;;;;;;5104774;28;20436;-89
2021/09/08 04:05:01;;;;;;;12.85;6.80;;;;;;;;;;5099542;28;20241;-88
2021/09/08 04:07:27;;;;;;;9.40;7.53;;;;;;;;;;5104013;28;20186;-87
2021/09/08 04:09:54;;;;;;;8.25;6.45;;;;;;;;;;5116043;28;20195;-87
2021/09/08 04:12:20;;;;;;;7.32;6.57;;;;;;;;;;5105871;28;20226;-87
2021/09/08 04:14:46;;;;;;;7.07;6.35;;;;;;;;;;5119681;28;20211;-87
2021/09/08 04:17:12;;;;;;;8.98;6.68;;;;;;;;;;5100529;28;20183;-89
2021/09/08 04:19:38;;;;;;;7.30;6.55;;;;;;;;;;5104907;28;20217;-89
2021/09/08 04:22:04;;;;;;;9.03;7.10;;;;;;;;;;5103521;28;20175;-88
2021/09/08 04:24:30;;;;;;;7.78;6.93;;;;;;;;;;5105485;28;20421;-87
2021/09/08 04:26:56;;;;;;;7.47;6.33;;;;;;;;;;5120174;28;20219;-87
2021/09/08 04:29:22;;;;;;;7.82;7.00;;;;;;;;;;5108469;28;20908;-89
2021/09/08 04:31:48;;;;;;;7.93;5.93;;;;;;;;;;5107430;28;20227;-89
2021/09/08 04:34:14;;;;;;;7.93;6.75;;;;;;;;;;5123591;28;20222;-88
2021/09/08 04:36:40;;;;;;;8.05;6.80;;;;;;;;;;5120772;28;20167;-88
2021/09/08 04:39:06;;;;;;;6.63;5.93;;;;;;;;;;5102222;28;20171;-88
2021/09/08 04:41:32;;;;;;;8.77;6.80;;;;;;;;;;5105381;28;20439;-87
2021/09/08 04:43:58;;;;;;;8.10;6.65;;;;;;;;;;5119361;28;20463;-89
2021/09/08 04:46:24;;;;;;;9.50;6.88;;;;;;;;;;5101628;28;20183;-89
2021/09/08 04:48:50;;;;;;;8.32;6.93;;;;;;;;;;5106254;28;20201;-89
2021/09/08 04:51:16;;;;;;;8.73;7.50;;;;;;;;;;5098673;28;20171;-88
2021/09/08 04:53:44;;;;;;;8.38;7.43;;;;;;;;;;5108549;28;20456;-88
2021/09/08 04:56:10;;;;;;;8.88;6.80;;;;;;;;;;5103443;28;20198;-88
2021/09/08 04:58:36;;;;;;;9.60;7.15;;;;;;;;;;5094864;28;20184;-87
2021/09/08 05:01:02;;;;;;;8.83;7.00;;;;;;;;;;5104138;28;20180;-88
2021/09/08 05:03:28;;;;;;;8.93;7.83;;;;;;;;;;5107893;28;20455;-89
2021/09/08 05:05:53;;;;;;;7.75;6.95;;;;;;;;;;5097756;28;20434;-88
2021/09/08 05:08:19;;;;;;;13.50;7.40;;;;;;;;;;5113870;28;20194;-89
2021/09/08 05:10:45;;;;;;;7.63;6.83;;;;;;;;;;5102556;28;20456;-90
2021/09/08 05:13:11;;;;;;;7.95;7.15;;;;;;;;;;5101418;28;20658;-87
2021/09/08 05:15:37;;;;;;;7.68;6.78;;;;;;;;;;5094510;28;20202;-89
2021/09/08 05:18:03;;;;;;;7.85;7.05;;;;;;;;;;5102515;28;20570;-89
2021/09/08 05:20:29;;;;;;;9.37;7.60;;;;;;;;;;5121609;28;20180;-88
2021/09/08 05:22:55;;;;;;;8.45;7.15;;;;;;;;;;5102869;28;20440;-89
2021/09/08 05:25:22;;;;;;;9.68;7.10;;;;;;;;;;5105234;28;20225;-88
2021/09/08 05:27:48;;;;;;;9.45;7.00;;;;;;;;;;5102488;28;20187;-91
2021/09/08 05:30:14;;;;;;;8.48;7.43;;;;;;;;;;5100913;28;20417;-86
2021/09/08 05:32:40;;;;;;;7.18;6.57;;;;;;;;;;5100477;28;20715;-89
2021/09/08 05:35:06;;;;;;;8.60;7.70;;;;;;;;;;5117836;28;20179;-90
2021/09/08 05:37:32;;;;;;;11.63;8.40;;;;;;;;;;5122386;28;20187;-90
2021/09/08 05:39:58;;;;;;;9.13;6.90;;;;;;;;;;5117801;28;20206;-91
2021/09/08 05:42:24;;;;;;;8.80;7.50;;;;;;;;;;5102863;28;20179;-88
2021/09/08 05:44:50;;;;;;;11.67;7.40;;;;;;;;;;5118558;28;20440;-88
2021/09/08 05:47:18;;;;;;;7.53;6.83;;;;;;;;;;5107541;28;20421;-90
2021/09/08 05:49:44;;;;;;;9.55;8.65;;;;;;;;;;5102301;28;20441;-90
2021/09/08 05:52:10;;;;;;;8.90;7.87;;;;;;;;;;5121842;28;20187;-90
2021/09/08 05:54:36;;;;;;;10.68;7.93;;;;;;;;;;5101639;28;20456;-90
2021/09/08 05:57:02;;;;;;;11.67;9.40;;;;;;;;;;5102409;28;20660;-91
2021/09/08 06:05:42;;;;;;;8.65;6.85;;;;;;;;;;5098568;28;20190;-87
2021/09/08 06:08:08;;;;;;;7.75;7.05;;;;;;;;;;5072879;28;20172;-86
2021/09/08 06:10:34;;;;;;;10.03;7.90;;;;;;;;;;5083350;28;20262;-88
2021/09/08 06:13:00;;;;;;;9.68;7.72;;;;;;;;;;5085832;28;20464;-88
2021/09/08 06:15:26;;;;;;;9.53;8.50;;;;;;;;;;5087706;28;20254;-87
2021/09/08 06:17:52;;;;;;;8.75;7.10;;;;;;;;;;5084495;28;20418;-87
2021/09/08 06:20:18;;;;;;;10.50;8.00;;;;;;;;;;5082171;28;20557;-88
2021/09/08 06:22:44;;;;;;;10.07;7.63;;;;;;;;;;5085864;28;20798;-87
2021/09/08 06:25:10;;;;;;;9.20;8.13;;;;;;;;;;5084676;28;20183;-87
2021/09/08 06:27:37;;;;;;;9.07;8.18;;;;;;;;;;5101264;28;20184;-88
2021/09/08 06:30:04;;;;;;;9.32;7.32;;;;;;;;;;5099081;28;20257;-87
2021/09/08 06:32:30;;;;;;;11.13;8.55;;;;;;;;;;5083844;28;20222;-88
2021/09/08 06:34:56;;;;;;;8.52;7.72;;;;;;;;;;5082861;28;20203;-87
2021/09/08 06:37:22;;;;;;;7.95;7.15;;;;;;;;;;5081393;28;20183;-87
2021/09/08 06:39:51;;;;;;;10.43;8.52;;;;;;;;;;5079561;28;20184;-88
2021/09/08 06:42:25;;;;;;;9.52;7.82;;;;;;;;;;5075769;28;20229;-88
2021/09/08 06:44:55;;;;;;;8.82;7.93;;;;;;;;;;5073087;28;20184;-86
2021/09/08 06:47:21;;;;;;;8.00;7.20;;;;;;;;;;5079124;28;20199;-84
2021/09/08 06:49:48;;;;;;;9.68;8.00;;;;;;;;;;5079772;28;20279;-88
2021/09/08 06:52:14;;;;;;;8.70;7.78;;;;;;;;;;5079768;28;20258;-86
2021/09/08 06:54:40;;;;;;;7.78;6.95;;;;;;;;;;5080514;28;20238;-88
2021/09/08 06:57:06;;;;;;;10.40;7.87;;;;;;;;;;5085702;28;20203;-87
2021/09/08 06:59:32;;;;;;;11.13;7.97;;;;;;;;;;5082346;28;20439;-87
2021/09/08 07:02:01;;;;;;;9.50;7.17;;;;;;;;;;5084183;28;20188;-87
2021/09/08 07:04:28;;;;;;;9.70;8.63;;;;;;;;;;5102306;28;20437;-87
2021/09/08 07:06:57;;;;;;;9.63;8.60;;;;;;;;;;5095409;28;20187;-86
2021/09/08 07:09:25;;;;;;;10.57;8.40;;;;;;;;;;5096642;28;20184;-87
2021/09/08 07:11:51;;;;;;;11.98;7.65;;;;;;;;;;5073917;28;20260;-87
2021/09/08 07:14:17;;;;;;;16.20;8.63;;;;;;;;;;5075911;28;20235;-87
2021/09/08 07:16:43;;;;;;;10.52;8.93;;;;;;;;;;5076140;28;20188;-87
2021/09/08 07:19:09;;;;;;;11.20;9.00;;;;;;;;;;5101491;28;20183;-89
2021/09/08 07:21:35;;;;;;;13.77;9.23;;;;;;;;;;5096073;28;20527;-87
2021/09/08 07:24:01;;;;;;;12.25;9.48;;;;;;;;;;5080646;28;20436;-88
2021/09/08 07:26:32;;;;;;;10.13;8.37;;;;;;;;;;5083885;28;20192;-88
2021/09/08 07:29:02;;;;;;;13.52;9.85;;;;;;;;;;5084159;28;20441;-87
2021/09/08 07:31:32;;;;;;;10.68;8.15;;;;;;;;;;5079198;28;20224;-87
2021/09/08 07:33:58;;;;;;;10.70;9.15;;;;;;;;;;5081551;28;20208;-86
2021/09/08 07:36:24;;;;;;;11.23;8.27;;;;;;;;;;5093555;28;20207;-87
2021/09/08 07:38:50;;;;;;;9.85;8.10;;;;;;;;;;5079268;28;20210;-88
2021/09/08 07:41:17;;;;;;;8.90;7.03;;;;;;;;;;5084558;28;20188;-87
2021/09/08 07:43:43;;;;;;;10.07;8.80;;;;;;;;;;5099189;28;20195;-86
2021/09/08 07:46:11;;;;;;;10.23;7.20;;;;;;;;;;5083729;28;20304;-87
2021/09/08 07:48:37;;;;;;;11.10;7.75;;;;;;;;;;5076870;28;20198;-86
2021/09/08 07:51:03;;;;;;;11.70;8.25;;;;;;;;;;5083168;28;20208;-86
2021/09/08 07:53:29;;;;;;;12.57;8.18;;;;;;;;;;5082023;28;20572;-85
2021/09/08 07:55:55;;;;;;;8.10;7.25;;;;;;;;;;5098626;28;20182;-87
2021/09/08 07:58:21;;;;;;;12.07;7.40;;;;;;;;;;5081572;28;20717;-84
2021/09/08 08:00:47;;;;;;;8.38;7.00;;;;;;;;;;5077764;28;20446;-85
2021/09/08 08:03:13;;;;;;;9.90;7.28;;;;;;;;;;5081330;28;20176;-87
2021/09/08 08:05:39;;;;;;;10.93;6.95;;;;;;;;;;5072336;28;20206;-87
2021/09/08 08:08:05;;;;;;;7.55;6.65;;;;;;;;;;5082928;28;20190;-86
2021/09/08 08:10:32;;;;;;;9.68;6.97;;;;;;;;;;5079244;28;20191;-86
2021/09/08 08:12:58;;;;;;;10.03;8.30;;;;;;;;;;5068906;28;20200;-86
2021/09/08 08:15:24;;;;;;;9.00;6.43;;;;;;;;;;5080154;28;20436;-89
2021/09/08 08:17:51;;;;;;;10.30;6.97;;;;;;;;;;5079011;28;20404;-82
2021/09/08 08:20:18;;;;;;;7.40;6.70;;;;;;;;;;5083328;28;20424;-87
2021/09/08 08:22:48;;;;;;;10.27;6.77;;;;;;;;;;5082258;28;20439;-85
2021/09/08 08:25:15;;;;;;;7.80;7.00;;;;;;;;;;5081392;28;20430;-84
2021/09/08 08:27:41;;;;;;;7.93;6.10;;;;;;;;;;5072295;28;20398;-83
2021/09/08 08:30:08;;;;;;;10.60;7.07;;;;;;;;;;5082787;28;20404;-85
2021/09/08 08:32:37;;;;;;;9.53;7.00;;;;;;;;;;5096784;28;20479;-86
2021/09/08 08:35:04;;;;;;;12.40;7.63;;;;;;;;;;5082340;28;20462;-85
2021/09/08 08:37:39;;;;;;;9.63;7.43;;;;;;;;;;5075753;28;20419;-86
2021/09/08 08:40:06;;;;;;;11.10;7.30;;;;;;;;;;5078249;28;20408;-84
2021/09/08 08:42:32;;;;;;;9.80;7.47;;;;;;;;;;5080310;28;20484;-84
2021/09/08 08:44:59;;;;;;;8.43;7.37;;;;;;;;;;5076723;28;20393;-87
2021/09/08 08:47:25;;;;;;;11.90;7.30;;;;;;;;;;5081378;28;20452;-84
2021/09/08 08:49:53;;;;;;;9.00;6.97;;;;;;;;;;5097053;28;20413;-84
2021/09/08 08:52:19;;;;;;;8.40;7.40;;;;;;;;;;5076933;28;20436;-87
2021/09/08 08:54:48;;;;;;;8.00;7.10;;;;;;;;;;5080162;28;20458;-83
2021/09/08 08:57:15;;;;;;;8.00;7.23;;;;;;;;;;5097347;28;20433;-88
2021/09/08 08:59:42;;;;;;;6.90;6.30;;;;;;;;;;5075801;28;20438;-87
2021/09/08 09:02:18;;;;;;;9.37;7.07;;;;;;;;;;5095036;28;20435;-84
2021/09/08 09:04:44;;;;;;;8.20;7.00;;;;;;;;;;5075245;28;20436;-87
2021/09/08 09:07:20;;;;;;;7.93;6.83;;;;;;;;;;5104765;28;20437;-87
2021/09/08 09:09:50;;;;;;;9.20;6.57;;;;;;;;;;5101218;28;20508;-86
2021/09/08 09:12:16;;;;;;;10.97;7.50;;;;;;;;;;5086399;28;20429;-87
2021/09/08 09:14:42;;;;;;;8.47;7.57;;;;;;;;;;5085485;28;20474;-87
2021/09/08 09:17:14;;;;;;;7.57;6.80;;;;;;;;;;5095114;28;20440;-82
2021/09/08 09:19:48;;;;;;;8.60;7.70;;;;;;;;;;5084881;28;20920;-85
2021/09/08 09:22:15;;;;;;;7.70;7.00;;;;;;;;;;5084028;28;20416;-87
2021/09/08 09:24:42;;;;;;;10.63;7.50;;;;;;;;;;5079707;28;20399;-86
2021/09/08 09:27:10;;;;;;;8.00;7.20;;;;;;;;;;5084866;28;20410;-87
2021/09/08 09:29:41;;;;;;;7.83;7.03;;;;;;;;;;5074825;28;20437;-86
2021/09/08 09:32:08;;;;;;;7.77;6.60;;;;;;;;;;5108151;28;20566;-84
2021/09/08 09:34:35;;;;;;;9.73;8.30;;;;;;;;;;5085680;28;20439;-85
2021/09/08 09:37:01;;;;;;;10.50;7.50;;;;;;;;;;5103573;28;20426;-80
2021/09/08 09:39:35;;;;;;;12.07;9.27;;;;;;;;;;5087445;28;20475;-86
2021/09/08 09:42:07;;;;;;;10.13;7.73;;;;;;;;;;5081678;28;20825;-87
2021/09/08 09:44:33;;;;;;;9.33;7.77;;;;;;;;;;5084747;28;20405;-87
2021/09/08 09:47:00;;;;;;;7.00;6.33;;;;;;;;;;5081985;28;20496;-86
2021/09/08 09:49:27;;;;;;;10.30;7.87;;;;;;;;;;5098555;28;20421;-86
2021/09/08 09:51:56;;;;;;;9.87;7.23;;;;;;;;;;5085389;28;20438;-89
2021/09/08 09:54:25;;;;;;;8.17;7.37;;;;;;;;;;5083615;28;20553;-87
2021/09/08 09:56:54;;;;;;;8.13;7.27;;;;;;;;;;5081042;28;20407;-85
2021/09/08 09:59:21;;;;;;;8.30;6.90;;;;;;;;;;5086178;28;20405;-85
2021/09/08 10:01:47;;;;;;;13.17;8.20;;;;;;;;;;5084861;28;20443;-88
2021/09/08 10:04:13;;;;;;;11.17;7.10;;;;;;;;;;5085090;28;20463;-83
2021/09/08 10:06:40;;;;;;;8.40;6.73;;;;;;;;;;5097904;28;20389;-85
2021/09/08 10:09:07;;;;;;;7.70;6.90;;;;;;;;;;5081198;28;20405;-87
2021/09/08 10:11:34;;;;;;;8.77;7.47;;;;;;;;;;5094660;28;20455;-86
2021/09/08 10:14:09;;;;;;;10.53;7.17;;;;;;;;;;5078455;28;20474;-88
2021/09/08 10:16:35;;;;;;;8.60;7.30;;;;;;;;;;5083210;28;20798;-87
2021/09/08 10:19:11;;;;;;;12.70;7.60;;;;;;;;;;5084627;28;20493;-84
2021/09/08 10:21:37;;;;;;;16.57;9.10;;;;;;;;;;5101399;28;20429;-86
2021/09/08 10:24:04;;;;;;;7.73;7.00;;;;;;;;;;5099741;28;20387;-86
2021/09/08 10:26:31;;;;;;;9.80;7.00;;;;;;;;;;5092951;28;20414;-87
2021/09/08 10:29:06;;;;;;;7.20;6.50;;;;;;;;;;5095630;28;20474;-84
2021/09/08 10:31:36;;;;;;;9.73;6.90;;;;;;;;;;5083518;28;20456;-84
2021/09/08 10:34:04;;;;;;;7.50;6.33;;;;;;;;;;5084279;28;20432;-85
2021/09/08 10:36:30;;;;;;;9.47;6.70;;;;;;;;;;5103790;28;20391;-82
2021/09/08 10:39:04;;;;;;;9.60;7.73;;;;;;;;;;5086512;28;20405;-84
2021/09/08 10:41:57;;;;;;;7.90;7.10;;;;;;;;;;5081305;28;20421;-79
2021/09/08 10:44:42;;;;;;;8.03;7.37;;;;;;;;;;5090558;28;20411;-84
2021/09/08 10:47:08;;;;;;;11.03;6.97;;;;;;;;;;5093943;28;20425;-84
2021/09/08 10:49:37;;;;;;;8.10;7.30;;;;;;;;;;5091900;28;20415;-81
2021/09/08 10:52:06;;;;;;;7.80;7.10;;;;;;;;;;5101907;28;20417;-83
2021/09/08 10:54:32;;;;;;;8.40;7.10;;;;;;;;;;5085325;28;20463;-82
2021/09/08 10:56:58;;;;;;;8.20;7.40;;;;;;;;;;5084736;28;20518;-83
2021/09/08 10:59:24;;;;;;;12.13;7.30;;;;;;;;;;5092608;28;20492;-82
2021/09/08 11:01:54;;;;;;;8.83;7.93;;;;;;;;;;5080362;28;21101;-84
2021/09/08 11:04:26;;;;;;;8.33;7.30;;;;;;;;;;5079634;28;20936;-80
2021/09/08 11:06:52;;;;;;;8.60;7.70;;;;;;;;;;5101813;28;20420;-86
2021/09/08 11:09:18;;;;;;;8.60;7.23;;;;;;;;;;5085344;28;20497;-86
2021/09/08 11:12:02;;;;;;;8.23;7.43;;;;;;;;;;5102136;28;20446;-81
2021/09/08 11:14:48;;;;;;;10.23;7.73;;;;;;;;;;5083789;28;20552;-86
2021/09/08 11:17:25;;;;;;;9.43;8.53;;;;;;;;;;5084192;28;20808;-86
2021/09/08 11:19:55;;;;;;;8.60;7.73;;;;;;;;;;5094448;28;20495;-84
2021/09/08 11:22:24;;;;;;;7.93;7.23;;;;;;;;;;5100401;28;20415;-84
2021/09/08 11:25:10;;;;;;;8.67;7.33;;;;;;;;;;5084189;28;20436;-85
2021/09/08 11:27:37;;;;;;;7.80;7.10;;;;;;;;;;5078517;28;20453;-84
2021/09/08 11:30:07;;;;;;;7.50;6.83;;;;;;;;;;5093600;28;20416;-83
2021/09/08 11:32:49;;;;;;;6.83;6.23;;;;;;;;;;5094412;28;20476;-86
2021/09/08 11:35:15;;;;;;;7.60;6.83;;;;;;;;;;5082824;28;20441;-85
2021/09/08 11:37:45;;;;;;;10.90;7.30;;;;;;;;;;5080141;28;20476;-85
2021/09/08 11:40:11;;;;;;;9.73;7.60;;;;;;;;;;5083652;28;20441;-86
2021/09/08 11:42:43;;;;;;;7.40;6.70;;;;;;;;;;5081434;28;20401;-83
2021/09/08 11:45:10;;;;;;;7.87;7.17;;;;;;;;;;5100738;28;20617;-84
2021/09/08 11:47:38;;;;;;;8.40;6.93;;;;;;;;;;5096315;28;20467;-83
2021/09/08 11:50:06;;;;;;;7.07;6.20;;;;;;;;;;5082945;28;20538;-83
2021/09/08 11:52:38;;;;;;;8.83;7.93;;;;;;;;;;5102071;28;20442;-81
2021/09/08 11:55:04;;;;;;;8.60;7.80;;;;;;;;;;5082628;28;20462;-80
2021/09/08 11:57:30;;;;;;;11.03;8.10;;;;;;;;;;5080889;28;20454;-82
2021/09/08 11:59:56;;;;;;;8.57;7.50;;;;;;;;;;5074839;28;20912;-82
2021/09/08 12:02:22;;;;;;;9.07;7.93;;;;;;;;;;5094964;28;20474;-83
2021/09/08 12:04:49;;;;;;;10.67;8.07;;;;;;;;;;5081987;28;20442;-84
2021/09/08 12:07:15;;;;;;;7.70;6.90;;;;;;;;;;5082963;28;20431;-82
2021/09/08 12:09:47;;;;;;;9.17;8.37;;;;;;;;;;5082780;28;20458;-82
2021/09/08 12:12:16;;;;;;;8.23;7.50;;;;;;;;;;5091439;28;20455;-81
2021/09/08 12:14:46;;;;;;;7.40;6.70;;;;;;;;;;5082101;28;20486;-84
2021/09/08 12:17:18;;;;;;;8.43;7.43;;;;;;;;;;5080511;28;20433;-81
2021/09/08 12:20:06;;;;;;;8.57;7.37;;;;;;;;;;5081690;28;20439;-83
2021/09/08 12:22:34;;;;;;;8.37;7.20;;;;;;;;;;5100959;28;20494;-83
2021/09/08 12:25:21;;;;;;;8.17;7.47;;;;;;;;;;5087375;28;20449;-82
2021/09/08 12:27:49;;;;;;;7.03;6.43;;;;;;;;;;5099736;28;20899;-81
2021/09/08 12:30:15;;;;;;;10.80;7.30;;;;;;;;;;5079000;28;20405;-80
2021/09/08 12:32:44;;;;;;;7.70;7.00;;;;;;;;;;5078547;28;20915;-79
2021/09/08 12:35:11;;;;;;;10.20;6.80;;;;;;;;;;5080083;28;20458;-81
2021/09/08 12:37:37;;;;;;;7.67;6.77;;;;;;;;;;5077083;28;20463;-79
2021/09/08 12:40:15;;;;;;;7.33;6.73;;;;;;;;;;5081377;28;20445;-79
2021/09/08 12:42:43;;;;;;;8.70;6.60;;;;;;;;;;5081060;28;20417;-79
2021/09/08 12:45:09;;;;;;;7.23;6.63;;;;;;;;;;5085096;28;20953;-80
2021/09/08 12:47:37;;;;;;;6.80;6.20;;;;;;;;;;5086397;28;20490;-80
2021/09/08 12:50:03;;;;;;;8.40;7.57;;;;;;;;;;5084307;28;20460;-78
2021/09/08 12:52:29;;;;;;;8.43;7.30;;;;;;;;;;5102681;28;20453;-82
2021/09/08 12:54:55;;;;;;;7.03;6.53;;;;;;;;;;5091357;28;20457;-80
2021/09/08 12:57:22;;;;;;;7.27;6.60;;;;;;;;;;5102475;28;20413;-83
2021/09/08 12:59:48;;;;;;;7.07;6.47;;;;;;;;;;5092844;28;20493;-82
2021/09/08 13:02:14;;;;;;;6.60;6.10;;;;;;;;;;5075335;28;20446;-81
2021/09/08 13:04:42;;;;;;;7.63;6.80;;;;;;;;;;5072865;28;20524;-82
2021/09/08 13:07:08;;;;;;;7.10;6.60;;;;;;;;;;5072608;28;20433;-82
2021/09/08 13:09:36;;;;;;;7.53;6.90;;;;;;;;;;5098273;28;20529;-81
2021/09/08 13:12:02;;;;;;;6.90;6.40;;;;;;;;;;5091738;28;20652;-81
2021/09/08 13:14:29;;;;;;;7.23;6.53;;;;;;;;;;5088060;28;20468;-81
2021/09/08 13:16:55;;;;;;;7.90;7.30;;;;;;;;;;5099273;28;20433;-82
2021/09/08 13:19:21;;;;;;;7.30;6.70;;;;;;;;;;5081437;28;20439;-82
2021/09/08 13:21:47;;;;;;;7.60;6.83;;;;;;;;;;5084673;28;21246;-82
2021/09/08 13:24:14;;;;;;;7.87;7.13;;;;;;;;;;5099291;28;20429;-81
2021/09/08 13:26:41;;;;;;;7.67;7.07;;;;;;;;;;5085118;28;20483;-82
2021/09/08 13:29:16;;;;;;;7.20;6.70;;;;;;;;;;5084162;28;20433;-81
2021/09/08 13:31:43;;;;;;;7.70;7.10;;;;;;;;;;5099197;28;20596;-82
2021/09/08 13:34:10;;;;;;;8.40;7.77;;;;;;;;;;5100704;28;20461;-82
2021/09/08 13:36:36;;;;;;;7.40;6.90;;;;;;;;;;5084603;28;20425;-82
2021/09/08 13:39:04;;;;;;;7.20;6.60;;;;;;;;;;5100890;28;20414;-81
2021/09/08 13:41:30;;;;;;;6.50;5.90;;;;;;;;;;5083707;28;20940;-82
2021/09/08 13:43:56;;;;;;;6.97;6.37;;;;;;;;;;5084754;28;20454;-81
2021/09/08 13:46:22;;;;;;;8.83;6.13;;;;;;;;;;5097750;28;20646;-83
2021/09/08 13:48:48;;;;;;;6.50;6.00;;;;;;;;;;5102760;28;20524;-82
2021/09/08 13:51:14;;;;;;;6.50;6.00;;;;;;;;;;5082851;28;20426;-82
2021/09/08 13:53:40;;;;;;;6.33;5.93;;;;;;;;;;5089165;28;20469;-82
2021/09/08 13:56:06;;;;;;;8.17;6.80;;;;;;;;;;5085286;28;20473;-81
2021/09/08 13:58:32;;;;;;;7.53;6.83;;;;;;;;;;5080200;28;20500;-82
2021/09/08 14:01:00;;;;;;;8.13;6.10;;;;;;;;;;5084011;28;20434;-82
2021/09/08 14:03:26;;;;;;;6.90;6.30;;;;;;;;;;5085787;28;20418;-82
2021/09/08 14:05:52;;;;;;;7.07;6.43;;;;;;;;;;5091703;28;20449;-81
2021/09/08 14:08:18;;;;;;;7.37;6.70;;;;;;;;;;5086549;28;20444;-81
2021/09/08 14:10:45;;;;;;;6.80;5.80;;;;;;;;;;5083566;28;20442;-82
2021/09/08 14:13:11;;;;;;;10.53;6.47;;;;;;;;;;5099658;28;20474;-81
2021/09/08 14:15:37;;;;;;;6.63;6.03;;;;;;;;;;5082229;28;20425;-81
2021/09/08 14:18:04;;;;;;;7.20;6.50;;;;;;;;;;5099598;28;20418;-81
2021/09/08 14:20:30;;;;;;;7.50;6.73;;;;;;;;;;5081915;28;20582;-81
2021/09/08 14:22:56;;;;;;;5.77;5.17;;;;;;;;;;5096765;28;20425;-81
2021/09/08 14:25:22;;;;;;;6.07;5.50;;;;;;;;;;5079646;28;20518;-82
2021/09/08 14:27:48;;;;;;;6.00;5.50;;;;;;;;;;5083838;28;20488;-82
2021/09/08 14:30:15;;;;;;;9.83;5.80;;;;;;;;;;5099834;28;20951;-81
2021/09/08 14:32:41;;;;;;;6.30;5.80;;;;;;;;;;5084134;28;20476;-83
2021/09/08 14:35:07;;;;;;;6.40;5.87;;;;;;;;;;5083317;28;20465;-82
2021/09/08 14:37:33;;;;;;;6.17;5.70;;;;;;;;;;5098267;28;20426;-80
2021/09/08 14:39:59;;;;;;;6.73;6.00;;;;;;;;;;5082344;28;20503;-82
2021/09/08 14:42:25;;;;;;;5.80;5.27;;;;;;;;;;5066763;28;20437;-82
2021/09/08 14:44:51;;;;;;;6.40;5.80;;;;;;;;;;5089252;28;20510;-82
2021/09/08 14:47:18;;;;;;;7.10;5.80;;;;;;;;;;5083572;28;20438;-81